Almont, North Dakota
Current Conditions -  °F | °C
As of 12:55 AM on Tuesday 21 Oct 2014 (Local Time) from KY19 Reporting Station
Clear Clear  
Wind Chill: 54°   Ceiling: Unl
Heat Index: 54°   Visibility: 10mi
Dew Point: 34°   Wind: 12mph
Humidity: 47%   Direction: 90°E
Pressure: 29.9"   Gusts: 18mph
Location:  46.73°N, 101.5°W
Report Text: KY19 210655Z AUTO 09010G16KT 10SM CLR 12/01 A2990 RMK AO2
Loading
Personal Weather Stations






























Interactive Weather Map New forecast layout! Learn more

10-Day Weather Forecast

Advertisements
Track Severe Weather on mobile